sensor_id;sensor_type;location;lat;lon;timestamp;pressure;altitude;pressure_sealevel;temperature;humidity
73103;BME280;61294;65.988;29.172;2024-02-28T00:00:03;98286.41;;;-4.09;100.00
73103;BME280;61294;65.988;29.172;2024-02-28T00:02:28;98287.81;;;-4.16;100.00
73103;BME280;61294;65.988;29.172;2024-02-28T00:04:55;98293.81;;;-4.15;100.00
73103;BME280;61294;65.988;29.172;2024-02-28T00:07:20;98288.69;;;-4.15;100.00
73103;BME280;61294;65.988;29.172;2024-02-28T00:09:46;98290.16;;;-4.20;100.00
73103;BME280;61294;65.988;29.172;2024-02-28T00:12:11;98286.47;;;-4.25;100.00
73103;BME280;61294;65.988;29.172;2024-02-28T00:14:37;98284.34;;;-4.34;100.00
73103;BME280;61294;65.988;29.172;2024-02-28T00:17:02;98273.88;;;-4.39;100.00
73103;BME280;61294;65.988;29.172;2024-02-28T00:19:28;98280.03;;;-4.35;100.00
73103;BME280;61294;65.988;29.172;2024-02-28T00:21:53;98269.06;;;-4.31;100.00
73103;BME280;61294;65.988;29.172;2024-02-28T00:24:19;98265.56;;;-4.33;100.00
73103;BME280;61294;65.988;29.172;2024-02-28T00:26:44;98271.56;;;-4.32;100.00
73103;BME280;61294;65.988;29.172;2024-02-28T00:29:10;98274.88;;;-4.35;100.00
73103;BME280;61294;65.988;29.172;2024-02-28T00:31:35;98266.34;;;-4.34;100.00
73103;BME280;61294;65.988;29.172;2024-02-28T00:34:01;98270.84;;;-4.30;100.00
73103;BME280;61294;65.988;29.172;2024-02-28T00:36:26;98266.34;;;-4.34;100.00
73103;BME280;61294;65.988;29.172;2024-02-28T00:38:52;98263.00;;;-4.33;100.00
73103;BME280;61294;65.988;29.172;2024-02-28T00:41:18;98265.69;;;-4.30;100.00
73103;BME280;61294;65.988;29.172;2024-02-28T00:43:43;98269.06;;;-4.31;100.00
73103;BME280;61294;65.988;29.172;2024-02-28T00:46:09;98264.66;;;-4.34;100.00
73103;BME280;61294;65.988;29.172;2024-02-28T00:48:37;98269.00;;;-4.32;100.00
73103;BME280;61294;65.988;29.172;2024-02-28T00:51:03;98268.06;;;-4.35;100.00
73103;BME280;61294;65.988;29.172;2024-02-28T00:53:28;98263.66;;;-4.37;100.00
73103;BME280;61294;65.988;29.172;2024-02-28T00:55:54;98265.38;;;-4.36;100.00
73103;BME280;61294;65.988;29.172;2024-02-28T00:58:20;98249.81;;;-4.39;100.00
73103;BME280;61294;65.988;29.172;2024-02-28T01:00:47;98245.25;;;-4.45;100.00
73103;BME280;61294;65.988;29.172;2024-02-28T01:03:12;98247.25;;;-4.39;100.00
73103;BME280;61294;65.988;29.172;2024-02-28T01:05:39;98241.03;;;-4.44;100.00
73103;BME280;61294;65.988;29.172;2024-02-28T01:08:05;98240.78;;;-4.49;100.00
73103;BME280;61294;65.988;29.172;2024-02-28T01:10:31;98236.22;;;-4.55;100.00
73103;BME280;61294;65.988;29.172;2024-02-28T01:12:57;98235.50;;;-4.52;100.00
73103;BME280;61294;65.988;29.172;2024-02-28T01:15:22;98240.97;;;-4.46;100.00
73103;BME280;61294;65.988;29.172;2024-02-28T01:17:48;98234.50;;;-4.56;100.00
73103;BME280;61294;65.988;29.172;2024-02-28T01:20:13;98232.06;;;-4.53;100.00
73103;BME280;61294;65.988;29.172;2024-02-28T01:22:39;98232.66;;;-4.58;100.00
73103;BME280;61294;65.988;29.172;2024-02-28T01:25:05;98233.59;;;-4.56;100.00
73103;BME280;61294;65.988;29.172;2024-02-28T01:27:30;98234.03;;;-4.65;100.00
73103;BME280;61294;65.988;29.172;2024-02-28T01:29:56;98232.66;;;-4.58;100.00
73103;BME280;61294;65.988;29.172;2024-02-28T01:32:21;98225.59;;;-4.62;100.00
73103;BME280;61294;65.988;29.172;2024-02-28T01:34:47;98224.72;;;-4.63;100.00
73103;BME280;61294;65.988;29.172;2024-02-28T01:37:12;98221.53;;;-4.75;100.00
73103;BME280;61294;65.988;29.172;2024-02-28T01:39:38;98230.50;;;-4.85;100.00
73103;BME280;61294;65.988;29.172;2024-02-28T01:42:03;98221.53;;;-4.93;100.00
73103;BME280;61294;65.988;29.172;2024-02-28T01:44:29;98226.72;;;-4.92;100.00
73103;BME280;61294;65.988;29.172;2024-02-28T01:46:54;98226.00;;;-4.89;100.00
73103;BME280;61294;65.988;29.172;2024-02-28T01:49:22;98227.78;;;-4.88;100.00
73103;BME280;61294;65.988;29.172;2024-02-28T01:51:48;98225.00;;;-4.93;100.00
73103;BME280;61294;65.988;29.172;2024-02-28T01:54:15;98214.78;;;-4.91;100.00
73103;BME280;61294;65.988;29.172;2024-02-28T01:56:40;98221.53;;;-4.93;100.00
73103;BME280;61294;65.988;29.172;2024-02-28T01:59:06;98219.72;;;-4.96;100.00
73103;BME280;61294;65.988;29.172;2024-02-28T02:01:32;98218.09;;;-4.94;100.00
73103;BME280;61294;65.988;29.172;2024-02-28T02:03:58;98219.13;;;-4.90;100.00
73103;BME280;61294;65.988;29.172;2024-02-28T02:06:23;98223.66;;;-4.85;100.00
73103;BME280;61294;65.988;29.172;2024-02-28T02:08:49;98217.66;;;-4.85;100.00
73103;BME280;61294;65.988;29.172;2024-02-28T02:11:14;98225.28;;;-4.87;100.00
73103;BME280;61294;65.988;29.172;2024-02-28T02:13:50;98220.06;;;-4.88;100.00
73103;BME280;61294;65.988;29.172;2024-02-28T02:16:16;98208.34;;;-4.83;100.00
73103;BME280;61294;65.988;29.172;2024-02-28T02:18:41;98220.28;;;-4.83;100.00
73103;BME280;61294;65.988;29.172;2024-02-28T02:21:07;98210.81;;;-4.85;100.00
73103;BME280;61294;65.988;29.172;2024-02-28T02:23:34;98212.50;;;-4.85;100.00
73103;BME280;61294;65.988;29.172;2024-02-28T02:26:00;98217.34;;;-4.91;100.00
73103;BME280;61294;65.988;29.172;2024-02-28T02:28:26;98212.94;;;-4.94;100.00
73103;BME280;61294;65.988;29.172;2024-02-28T02:30:51;98213.09;;;-4.91;100.00
73103;BME280;61294;65.988;29.172;2024-02-28T02:33:17;98209.72;;;-4.90;100.00
73103;BME280;61294;65.988;29.172;2024-02-28T02:35:43;98208.84;;;-4.90;100.00
73103;BME280;61294;65.988;29.172;2024-02-28T02:38:09;98199.44;;;-4.90;100.00
73103;BME280;61294;65.988;29.172;2024-02-28T02:40:34;98205.44;;;-4.89;100.00
73103;BME280;61294;65.988;29.172;2024-02-28T02:42:59;98199.50;;;-4.88;100.00
73103;BME280;61294;65.988;29.172;2024-02-28T02:45:25;98196.00;;;-4.90;100.00
73103;BME280;61294;65.988;29.172;2024-02-28T02:47:50;98193.34;;;-4.92;100.00
73103;BME280;61294;65.988;29.172;2024-02-28T02:50:16;98182.41;;;-4.88;100.00
73103;BME280;61294;65.988;29.172;2024-02-28T02:52:41;98181.59;;;-4.87;100.00
73103;BME280;61294;65.988;29.172;2024-02-28T02:55:07;98182.47;;;-4.86;100.00
73103;BME280;61294;65.988;29.172;2024-02-28T02:57:33;98191.09;;;-4.86;100.00
73103;BME280;61294;65.988;29.172;2024-02-28T02:59:58;98179.97;;;-4.85;100.00
73103;BME280;61294;65.988;29.172;2024-02-28T03:02:24;98184.25;;;-4.85;100.00
73103;BME280;61294;65.988;29.172;2024-02-28T03:04:49;98173.69;;;-4.91;100.00
73103;BME280;61294;65.988;29.172;2024-02-28T03:07:15;98177.69;;;-4.96;100.00
73103;BME280;61294;65.988;29.172;2024-02-28T03:09:40;98176.25;;;-4.91;100.00
73103;BME280;61294;65.988;29.172;2024-02-28T03:12:06;98164.19;;;-4.92;100.00
73103;BME280;61294;65.988;29.172;2024-02-28T03:14:31;98169.34;;;-4.92;100.00
73103;BME280;61294;65.988;29.172;2024-02-28T03:16:57;98164.13;;;-4.94;100.00
73103;BME280;61294;65.988;29.172;2024-02-28T03:19:22;98160.97;;;-4.88;100.00
73103;BME280;61294;65.988;29.172;2024-02-28T03:21:48;98149.38;;;-4.98;100.00
73103;BME280;61294;65.988;29.172;2024-02-28T03:24:13;98152.16;;;-4.93;100.00
73103;BME280;61294;65.988;29.172;2024-02-28T03:26:39;98145.94;;;-4.98;100.00
73103;BME280;61294;65.988;29.172;2024-02-28T03:29:04;98140.88;;;-4.97;100.00
73103;BME280;61294;65.988;29.172;2024-02-28T03:31:30;98142.84;;;-4.91;100.00
73103;BME280;61294;65.988;29.172;2024-02-28T03:33:55;98134.50;;;-4.87;100.00
73103;BME280;61294;65.988;29.172;2024-02-28T03:36:21;98135.28;;;-4.88;100.00
73103;BME280;61294;65.988;29.172;2024-02-28T03:38:46;98131.78;;;-4.90;100.00
73103;BME280;61294;65.988;29.172;2024-02-28T03:41:12;98135.72;;;-4.97;100.00
73103;BME280;61294;65.988;29.172;2024-02-28T03:43:37;98143.38;;;-4.98;100.00
73103;BME280;61294;65.988;29.172;2024-02-28T03:46:03;98138.09;;;-5.01;100.00
73103;BME280;61294;65.988;29.172;2024-02-28T03:48:28;98144.03;;;-5.03;100.00
73103;BME280;61294;65.988;29.172;2024-02-28T03:50:54;98130.66;;;-4.95;100.00
73103;BME280;61294;65.988;29.172;2024-02-28T03:53:19;98136.97;;;-4.89;100.00
73103;BME280;61294;65.988;29.172;2024-02-28T03:55:45;98133.50;;;-4.89;100.00
73103;BME280;61294;65.988;29.172;2024-02-28T03:58:11;98130.00;;;-4.91;100.00
73103;BME280;61294;65.988;29.172;2024-02-28T04:00:36;98128.25;;;-4.92;100.00
73103;BME280;61294;65.988;29.172;2024-02-28T04:03:02;98125.31;;;-5.00;100.00
73103;BME280;61294;65.988;29.172;2024-02-28T04:05:28;98126.69;;;-5.07;100.00
73103;BME280;61294;65.988;29.172;2024-02-28T04:07:54;98131.97;;;-5.04;100.00
73103;BME280;61294;65.988;29.172;2024-02-28T04:10:19;98120.38;;;-4.95;100.00
73103;BME280;61294;65.988;29.172;2024-02-28T04:12:45;98122.44;;;-4.88;100.00
73103;BME280;61294;65.988;29.172;2024-02-28T04:15:13;98122.22;;;-4.93;100.00
73103;BME280;61294;65.988;29.172;2024-02-28T04:17:39;98116.13;;;-4.95;100.00
73103;BME280;61294;65.988;29.172;2024-02-28T04:20:11;98125.13;;;-5.03;100.00
73103;BME280;61294;65.988;29.172;2024-02-28T04:22:37;98130.22;;;-5.05;100.00
73103;BME280;61294;65.988;29.172;2024-02-28T04:25:07;98141.47;;;-5.03;100.00
73103;BME280;61294;65.988;29.172;2024-02-28T04:27:33;98150.81;;;-5.03;100.00
73103;BME280;61294;65.988;29.172;2024-02-28T04:29:58;98149.31;;;-4.99;100.00
73103;BME280;61294;65.988;29.172;2024-02-28T04:32:24;98144.09;;;-5.01;100.00
73103;BME280;61294;65.988;29.172;2024-02-28T04:34:49;98148.25;;;-5.03;100.00
73103;BME280;61294;65.988;29.172;2024-02-28T04:37:15;98143.88;;;-5.06;100.00
73103;BME280;61294;65.988;29.172;2024-02-28T04:39:40;98151.34;;;-5.10;100.00
73103;BME280;61294;65.988;29.172;2024-02-28T04:42:06;98147.97;;;-5.09;100.00
73103;BME280;61294;65.988;29.172;2024-02-28T04:44:32;98153.03;;;-5.11;100.00
73103;BME280;61294;65.988;29.172;2024-02-28T04:46:58;98151.25;;;-5.12;100.00
73103;BME280;61294;65.988;29.172;2024-02-28T04:49:24;98148.69;;;-5.12;100.00
73103;BME280;61294;65.988;29.172;2024-02-28T04:51:49;98159.22;;;-5.07;100.00
73103;BME280;61294;65.988;29.172;2024-02-28T04:54:15;98163.16;;;-5.14;100.00
73103;BME280;61294;65.988;29.172;2024-02-28T04:56:40;98154.88;;;-5.08;100.00
73103;BME280;61294;65.988;29.172;2024-02-28T04:59:07;98159.22;;;-5.07;100.00
73103;BME280;61294;65.988;29.172;2024-02-28T05:01:32;98127.56;;;-5.24;100.00
73103;BME280;61294;65.988;29.172;2024-02-28T05:03:58;98156.94;;;-5.01;100.00
73103;BME280;61294;65.988;29.172;2024-02-28T05:06:23;98154.38;;;-5.01;100.00
73103;BME280;61294;65.988;29.172;2024-02-28T05:08:49;98150.81;;;-5.03;100.00
73103;BME280;61294;65.988;29.172;2024-02-28T05:11:14;98149.88;;;-5.05;100.00
73103;BME280;61294;65.988;29.172;2024-02-28T05:13:40;98145.47;;;-5.08;100.00
73103;BME280;61294;65.988;29.172;2024-02-28T05:16:11;98147.31;;;-5.05;100.00
73103;BME280;61294;65.988;29.172;2024-02-28T05:18:37;98139.91;;;-5.17;100.00
73103;BME280;61294;65.988;29.172;2024-02-28T05:21:02;98142.63;;;-5.14;100.00
73103;BME280;61294;65.988;29.172;2024-02-28T05:23:28;98133.88;;;-5.17;100.00
73103;BME280;61294;65.988;29.172;2024-02-28T05:25:54;98130.66;;;-5.13;100.00
73103;BME280;61294;65.988;29.172;2024-02-28T05:28:19;98137.47;;;-5.14;100.00
73103;BME280;61294;65.988;29.172;2024-02-28T05:30:45;98135.72;;;-5.15;100.00
73103;BME280;61294;65.988;29.172;2024-02-28T05:33:10;98133.28;;;-5.12;100.00
73103;BME280;61294;65.988;29.172;2024-02-28T05:35:36;98127.28;;;-5.12;100.00
73103;BME280;61294;65.988;29.172;2024-02-28T05:38:02;98124.94;;;-5.08;100.00
73103;BME280;61294;65.988;29.172;2024-02-28T05:40:27;98121.34;;;-5.11;100.00
73103;BME280;61294;65.988;29.172;2024-02-28T05:42:53;98122.34;;;-5.08;100.00
73103;BME280;61294;65.988;29.172;2024-02-28T05:45:18;98114.78;;;-5.05;100.00
73103;BME280;61294;65.988;29.172;2024-02-28T05:47:44;98116.50;;;-5.05;100.00
73103;BME280;61294;65.988;29.172;2024-02-28T05:50:10;98119.28;;;-5.00;100.00
73103;BME280;61294;65.988;29.172;2024-02-28T05:52:35;98113.41;;;-4.98;100.00
73103;BME280;61294;65.988;29.172;2024-02-28T05:55:01;98119.00;;;-4.89;100.00
73103;BME280;61294;65.988;29.172;2024-02-28T05:57:26;98114.53;;;-4.93;100.00
73103;BME280;61294;65.988;29.172;2024-02-28T05:59:52;98119.94;;;-4.87;100.00
73103;BME280;61294;65.988;29.172;2024-02-28T06:02:17;98119.81;;;-4.90;100.00
73103;BME280;61294;65.988;29.172;2024-02-28T06:04:43;98121.78;;;-4.84;100.00
73103;BME280;61294;65.988;29.172;2024-02-28T06:07:08;98120.16;;;-4.82;100.00
73103;BME280;61294;65.988;29.172;2024-02-28T06:09:34;98112.56;;;-4.79;100.00
73103;BME280;61294;65.988;29.172;2024-02-28T06:11:59;98122.13;;;-4.76;100.00
73103;BME280;61294;65.988;29.172;2024-02-28T06:14:26;98125.66;;;-4.74;100.00
73103;BME280;61294;65.988;29.172;2024-02-28T06:16:52;98108.63;;;-4.72;100.00
73103;BME280;61294;65.988;29.172;2024-02-28T06:19:18;98121.41;;;-4.74;100.00
73103;BME280;61294;65.988;29.172;2024-02-28T06:21:43;98113.75;;;-4.72;100.00
73103;BME280;61294;65.988;29.172;2024-02-28T06:24:09;98118.91;;;-4.72;100.00
73103;BME280;61294;65.988;29.172;2024-02-28T06:26:34;98114.72;;;-4.70;100.00
73103;BME280;61294;65.988;29.172;2024-02-28T06:29:00;98117.50;;;-4.65;100.00
73103;BME280;61294;65.988;29.172;2024-02-28T06:31:29;98108.09;;;-4.65;100.00
73103;BME280;61294;65.988;29.172;2024-02-28T06:33:56;98113.31;;;-4.63;100.00
73103;BME280;61294;65.988;29.172;2024-02-28T06:36:22;98113.31;;;-4.63;100.00
73103;BME280;61294;65.988;29.172;2024-02-28T06:38:48;98121.06;;;-4.62;100.00
73103;BME280;61294;65.988;29.172;2024-02-28T06:41:13;98116.97;;;-4.58;100.00
73103;BME280;61294;65.988;29.172;2024-02-28T06:43:39;98129.75;;;-4.60;100.00
73103;BME280;61294;65.988;29.172;2024-02-28T06:46:04;98121.25;;;-4.59;100.00
73103;BME280;61294;65.988;29.172;2024-02-28T06:48:30;98121.97;;;-4.61;100.00
73103;BME280;61294;65.988;29.172;2024-02-28T06:50:56;98118.69;;;-4.59;100.00
73103;BME280;61294;65.988;29.172;2024-02-28T06:53:22;98122.97;;;-4.58;100.00
73103;BME280;61294;65.988;29.172;2024-02-28T06:55:48;98121.38;;;-4.56;100.00
73103;BME280;61294;65.988;29.172;2024-02-28T06:58:14;98117.47;;;-4.47;100.00
73103;BME280;61294;65.988;29.172;2024-02-28T07:00:39;98115.91;;;-4.44;100.00
73103;BME280;61294;65.988;29.172;2024-02-28T07:03:05;98104.81;;;-4.43;100.00
73103;BME280;61294;65.988;29.172;2024-02-28T07:05:30;98106.44;;;-4.45;100.00
73103;BME280;61294;65.988;29.172;2024-02-28T07:07:56;98108.19;;;-4.44;100.00
73103;BME280;61294;65.988;29.172;2024-02-28T07:10:21;98113.53;;;-4.39;100.00
73103;BME280;61294;65.988;29.172;2024-02-28T07:12:48;98095.84;;;-4.33;100.00
73103;BME280;61294;65.988;29.172;2024-02-28T07:15:14;98103.03;;;-4.26;100.00
73103;BME280;61294;65.988;29.172;2024-02-28T07:17:39;98103.75;;;-4.28;100.00
73103;BME280;61294;65.988;29.172;2024-02-28T07:20:05;98089.25;;;-4.26;100.00
73103;BME280;61294;65.988;29.172;2024-02-28T07:22:32;98096.97;;;-4.26;100.00
73103;BME280;61294;65.988;29.172;2024-02-28T07:24:57;98094.53;;;-4.23;100.00
73103;BME280;61294;65.988;29.172;2024-02-28T07:27:23;98093.00;;;-4.20;100.00
73103;BME280;61294;65.988;29.172;2024-02-28T07:29:49;98083.56;;;-4.19;100.00
73103;BME280;61294;65.988;29.172;2024-02-28T07:32:15;98081.97;;;-4.17;100.00
73103;BME280;61294;65.988;29.172;2024-02-28T07:34:40;98088.88;;;-4.16;100.00
73103;BME280;61294;65.988;29.172;2024-02-28T07:37:06;98088.09;;;-4.13;100.00
73103;BME280;61294;65.988;29.172;2024-02-28T07:39:31;98092.66;;;-4.08;100.00
73103;BME280;61294;65.988;29.172;2024-02-28T07:41:57;98078.78;;;-4.11;100.00
73103;BME280;61294;65.988;29.172;2024-02-28T07:44:23;98079.84;;;-4.06;100.00
73103;BME280;61294;65.988;29.172;2024-02-28T07:46:48;98084.31;;;-4.02;100.00
73103;BME280;61294;65.988;29.172;2024-02-28T07:49:15;98087.78;;;-4.02;100.00
73103;BME280;61294;65.988;29.172;2024-02-28T07:51:41;98084.31;;;-4.02;100.00
73103;BME280;61294;65.988;29.172;2024-02-28T07:54:07;98086.22;;;-3.98;100.00
73103;BME280;61294;65.988;29.172;2024-02-28T07:56:32;98073.41;;;-3.96;100.00
73103;BME280;61294;65.988;29.172;2024-02-28T07:58:58;98076.28;;;-3.90;100.00
73103;BME280;61294;65.988;29.172;2024-02-28T08:01:23;98074.31;;;-3.96;100.00
73103;BME280;61294;65.988;29.172;2024-02-28T08:03:49;98079.47;;;-3.96;100.00
73103;BME280;61294;65.988;29.172;2024-02-28T08:06:15;98069.53;;;-3.87;100.00
73103;BME280;61294;65.988;29.172;2024-02-28T08:08:43;98066.09;;;-3.87;100.00
73103;BME280;61294;65.988;29.172;2024-02-28T08:11:10;98052.16;;;-3.92;100.00
73103;BME280;61294;65.988;29.172;2024-02-28T08:13:36;98053.84;;;-3.93;100.00
73103;BME280;61294;65.988;29.172;2024-02-28T08:16:01;98056.56;;;-3.90;100.00
73103;BME280;61294;65.988;29.172;2024-02-28T08:18:27;98054.09;;;-3.87;100.00
73103;BME280;61294;65.988;29.172;2024-02-28T08:20:53;98049.75;;;-3.88;100.00
73103;BME280;61294;65.988;29.172;2024-02-28T08:23:22;98052.75;;;-3.78;100.00
73103;BME280;61294;65.988;29.172;2024-02-28T08:25:48;98055.38;;;-3.77;100.00
73103;BME280;61294;65.988;29.172;2024-02-28T08:28:13;98058.69;;;-3.79;100.00
73103;BME280;61294;65.988;29.172;2024-02-28T08:30:39;98052.44;;;-3.86;100.00
73103;BME280;61294;65.988;29.172;2024-02-28T08:33:06;98061.19;;;-3.81;100.00
73103;BME280;61294;65.988;29.172;2024-02-28T08:35:31;98058.75;;;-3.78;100.00
73103;BME280;61294;65.988;29.172;2024-02-28T08:37:57;98058.88;;;-3.75;100.00
73103;BME280;61294;65.988;29.172;2024-02-28T08:40:22;98066.59;;;-3.75;100.00
73103;BME280;61294;65.988;29.172;2024-02-28T08:42:48;98058.97;;;-3.73;100.00
73103;BME280;61294;65.988;29.172;2024-02-28T08:45:18;98065.59;;;-3.78;100.00
73103;BME280;61294;65.988;29.172;2024-02-28T08:47:43;98060.41;;;-3.80;100.00
73103;BME280;61294;65.988;29.172;2024-02-28T08:50:10;98065.16;;;-3.68;100.00
73103;BME280;61294;65.988;29.172;2024-02-28T08:52:35;98065.56;;;-3.59;100.00
73103;BME280;61294;65.988;29.172;2024-02-28T08:55:01;98063.06;;;-3.57;100.00
73103;BME280;61294;65.988;29.172;2024-02-28T08:57:28;98057.84;;;-3.59;100.00
73103;BME280;61294;65.988;29.172;2024-02-28T08:59:55;98047.03;;;-3.50;100.00
73103;BME280;61294;65.988;29.172;2024-02-28T09:02:21;98059.09;;;-3.49;100.00
73103;BME280;61294;65.988;29.172;2024-02-28T09:04:46;98052.94;;;-3.53;100.00
73103;BME280;61294;65.988;29.172;2024-02-28T09:07:16;98056.91;;;-3.40;100.00
73103;BME280;61294;65.988;29.172;2024-02-28T09:09:45;98056.25;;;-3.34;100.00
73103;BME280;61294;65.988;29.172;2024-02-28T09:12:10;98050.88;;;-3.40;100.00
73103;BME280;61294;65.988;29.172;2024-02-28T09:14:36;98055.88;;;-3.43;100.00
73103;BME280;61294;65.988;29.172;2024-02-28T09:17:01;98045.50;;;-3.45;100.00
73103;BME280;61294;65.988;29.172;2024-02-28T09:19:30;98039.94;;;-3.35;100.00
73103;BME280;61294;65.988;29.172;2024-02-28T09:21:55;98049.41;;;-3.34;100.00
73103;BME280;61294;65.988;29.172;2024-02-28T09:24:22;98034.59;;;-3.39;100.00
73103;BME280;61294;65.988;29.172;2024-02-28T09:26:47;98040.63;;;-3.39;100.00
73103;BME280;61294;65.988;29.172;2024-02-28T09:29:13;98033.09;;;-3.34;100.00
73103;BME280;61294;65.988;29.172;2024-02-28T09:31:38;98026.16;;;-3.35;100.00
73103;BME280;61294;65.988;29.172;2024-02-28T09:34:04;98046.88;;;-3.32;100.00
73103;BME280;61294;65.988;29.172;2024-02-28T09:36:44;98031.53;;;-3.31;100.00
73103;BME280;61294;65.988;29.172;2024-02-28T09:39:13;98035.19;;;-3.24;100.00
73103;BME280;61294;65.988;29.172;2024-02-28T09:41:42;98030.81;;;-3.26;100.00
73103;BME280;61294;65.988;29.172;2024-02-28T09:44:08;98032.75;;;-3.21;100.00
73103;BME280;61294;65.988;29.172;2024-02-28T09:46:33;98037.94;;;-3.19;100.00
73103;BME280;61294;65.988;29.172;2024-02-28T09:49:03;98032.31;;;-3.10;100.00
73103;BME280;61294;65.988;29.172;2024-02-28T09:51:33;98033.81;;;-3.16;100.00
73103;BME280;61294;65.988;29.172;2024-02-28T09:54:01;98028.88;;;-3.09;100.00
73103;BME280;61294;65.988;29.172;2024-02-28T09:56:27;98035.88;;;-3.07;100.00
73103;BME280;61294;65.988;29.172;2024-02-28T09:58:54;98027.59;;;-2.98;100.00
73103;BME280;61294;65.988;29.172;2024-02-28T10:01:19;98019.06;;;-2.97;100.00
73103;BME280;61294;65.988;29.172;2024-02-28T10:03:46;98030.31;;;-2.95;100.00
73103;BME280;61294;65.988;29.172;2024-02-28T10:06:13;98022.47;;;-2.98;100.00
73103;BME280;61294;65.988;29.172;2024-02-28T10:08:38;98017.72;;;-2.87;100.00
73103;BME280;61294;65.988;29.172;2024-02-28T10:11:04;98026.38;;;-2.85;100.00
73103;BME280;61294;65.988;29.172;2024-02-28T10:13:31;98027.50;;;-3.01;100.00
73103;BME280;61294;65.988;29.172;2024-02-28T10:15:56;98012.16;;;-2.98;100.00
73103;BME280;61294;65.988;29.172;2024-02-28T10:18:22;98014.13;;;-2.91;100.00
73103;BME280;61294;65.988;29.172;2024-02-28T10:20:47;98006.28;;;-2.94;100.00
73103;BME280;61294;65.988;29.172;2024-02-28T10:23:13;98000.31;;;-2.93;100.00
73103;BME280;61294;65.988;29.172;2024-02-28T10:25:45;98007.81;;;-2.77;100.00
73103;BME280;61294;65.988;29.172;2024-02-28T10:28:11;98008.78;;;-2.50;100.00
73103;BME280;61294;65.988;29.172;2024-02-28T10:30:40;98002.19;;;-2.66;100.00
73103;BME280;61294;65.988;29.172;2024-02-28T10:33:10;98010.09;;;-2.62;100.00
73103;BME280;61294;65.988;29.172;2024-02-28T10:35:35;98015.53;;;-2.77;100.00
73103;BME280;61294;65.988;29.172;2024-02-28T10:38:02;98019.06;;;-2.74;100.00
73103;BME280;61294;65.988;29.172;2024-02-28T10:40:27;98013.97;;;-2.73;100.00
73103;BME280;61294;65.988;29.172;2024-02-28T10:42:53;98018.38;;;-2.70;100.00
73103;BME280;61294;65.988;29.172;2024-02-28T10:45:19;98005.88;;;-2.82;100.00
73103;BME280;61294;65.988;29.172;2024-02-28T10:47:46;98005.88;;;-2.82;100.00
73103;BME280;61294;65.988;29.172;2024-02-28T10:50:14;98014.50;;;-2.82;100.00
73103;BME280;61294;65.988;29.172;2024-02-28T10:52:43;98014.97;;;-2.92;100.00
73103;BME280;61294;65.988;29.172;2024-02-28T10:55:09;98017.34;;;-2.74;100.00
73103;BME280;61294;65.988;29.172;2024-02-28T10:57:36;98018.13;;;-2.77;100.00
73103;BME280;61294;65.988;29.172;2024-02-28T11:00:02;98006.41;;;-2.91;100.00
73103;BME280;61294;65.988;29.172;2024-02-28T11:02:30;98013.16;;;-2.95;100.00
73103;BME280;61294;65.988;29.172;2024-02-28T11:04:56;98017.03;;;-2.83;100.00
73103;BME280;61294;65.988;29.172;2024-02-28T11:07:24;98013.59;;;-2.82;100.00
73103;BME280;61294;65.988;29.172;2024-02-28T11:09:53;98024.34;;;-2.71;100.00
73103;BME280;61294;65.988;29.172;2024-02-28T11:12:25;98014.84;;;-2.72;100.00
73103;BME280;61294;65.988;29.172;2024-02-28T11:14:59;98008.81;;;-2.73;100.00
73103;BME280;61294;65.988;29.172;2024-02-28T11:17:29;98016.81;;;-2.65;100.00
73103;BME280;61294;65.988;29.172;2024-02-28T11:19:55;98020.47;;;-2.60;100.00
73103;BME280;61294;65.988;29.172;2024-02-28T11:22:21;98014.25;;;-2.65;100.00
73103;BME280;61294;65.988;29.172;2024-02-28T11:24:47;98021.22;;;-2.63;100.00
73103;BME280;61294;65.988;29.172;2024-02-28T11:27:13;98029.00;;;-2.61;100.00
73103;BME280;61294;65.988;29.172;2024-02-28T11:29:39;98010.69;;;-2.69;100.00
73103;BME280;61294;65.988;29.172;2024-02-28T11:32:05;98020.88;;;-2.72;100.00
73103;BME280;61294;65.988;29.172;2024-02-28T11:34:31;98016.53;;;-2.73;100.00
73103;BME280;61294;65.988;29.172;2024-02-28T11:36:56;98018.13;;;-2.77;100.00
73103;BME280;61294;65.988;29.172;2024-02-28T11:39:23;98014.44;;;-2.61;100.00
73103;BME280;61294;65.988;29.172;2024-02-28T11:41:52;98019.00;;;-2.53;100.00
73103;BME280;61294;65.988;29.172;2024-02-28T11:44:18;98013.84;;;-2.53;100.00
73103;BME280;61294;65.988;29.172;2024-02-28T11:46:52;98002.13;;;-2.68;100.00
73103;BME280;61294;65.988;29.172;2024-02-28T11:49:18;98004.16;;;-2.59;100.00
73103;BME280;61294;65.988;29.172;2024-02-28T11:51:44;97996.13;;;-2.67;100.00
73103;BME280;61294;65.988;29.172;2024-02-28T11:54:09;97996.84;;;-2.47;100.00
73103;BME280;61294;65.988;29.172;2024-02-28T11:56:36;97983.16;;;-2.46;100.00
73103;BME280;61294;65.988;29.172;2024-02-28T11:59:02;97988.66;;;-2.36;100.00
73103;BME280;61294;65.988;29.172;2024-02-28T12:01:35;97981.22;;;-2.27;100.00
73103;BME280;61294;65.988;29.172;2024-02-28T12:04:02;97986.13;;;-2.35;100.00
73103;BME280;61294;65.988;29.172;2024-02-28T12:06:29;97986.72;;;-2.18;100.00
73103;BME280;61294;65.988;29.172;2024-02-28T12:08:54;97982.38;;;-2.43;100.00
73103;BME280;61294;65.988;29.172;2024-02-28T12:11:20;97979.66;;;-2.23;100.00
73103;BME280;61294;65.988;29.172;2024-02-28T12:13:46;97975.25;;;-2.50;100.00
73103;BME280;61294;65.988;29.172;2024-02-28T12:16:11;97981.63;;;-2.40;100.00
73103;BME280;61294;65.988;29.172;2024-02-28T12:18:37;97976.38;;;-2.44;100.00
73103;BME280;61294;65.988;29.172;2024-02-28T12:21:03;97970.34;;;-2.43;100.00
73103;BME280;61294;65.988;29.172;2024-02-28T12:23:29;97973.88;;;-2.40;100.00
73103;BME280;61294;65.988;29.172;2024-02-28T12:25:54;97968.44;;;-2.48;100.00
73103;BME280;61294;65.988;29.172;2024-02-28T12:28:20;97959.28;;;-2.40;100.00
73103;BME280;61294;65.988;29.172;2024-02-28T12:30:45;97965.53;;;-2.33;100.00
73103;BME280;61294;65.988;29.172;2024-02-28T12:33:11;97983.53;;;-2.35;100.00